Time;durP1;ratioP1;P1;durP2;ratioP2;P2;SDS_P1;SDS_P2;PMS_P1;PMS_P2;Temp;Humidity;BMP_temperature;BMP_pressure;BME280_temperature;BME280_humidity;BME280_pressure;Samples;Min_cycle;Max_cycle;Signal;HPM_P1;HPM_P2
2023/07/01 00:00:34;;;;;;;1.63;1.33;;;16.30;99.90;;;;;;5035110;28;20025;-83
2023/07/01 00:03:00;;;;;;;5.13;1.63;;;16.30;99.90;;;;;;5035501;28;20026;-83
2023/07/01 00:05:26;;;;;;;2.05;1.30;;;16.30;99.90;;;;;;5021126;28;20302;-85
2023/07/01 00:07:51;;;;;;;2.75;1.70;;;16.30;99.90;;;;;;5035252;28;20036;-85
2023/07/01 00:10:17;;;;;;;1.85;1.67;;;16.40;99.90;;;;;;5035011;28;20089;-84
2023/07/01 00:12:43;;;;;;;1.92;1.60;;;16.40;99.90;;;;;;5019982;28;20110;-85
2023/07/01 00:15:09;;;;;;;2.55;1.50;;;16.50;99.90;;;;;;5019997;28;20037;-85
2023/07/01 00:17:35;;;;;;;1.90;1.80;;;16.50;99.90;;;;;;5035260;28;20032;-83
2023/07/01 00:20:01;;;;;;;1.60;1.50;;;16.50;99.90;;;;;;5019630;28;20050;-83
2023/07/01 00:22:27;;;;;;;5.40;1.67;;;16.50;99.90;;;;;;5034706;28;20018;-84
2023/07/01 00:24:52;;;;;;;1.48;1.30;;;16.50;99.90;;;;;;5034663;28;20348;-83
2023/07/01 00:27:18;;;;;;;2.38;2.00;;;16.50;99.90;;;;;;5035582;28;20109;-84
2023/07/01 00:29:44;;;;;;;4.40;1.80;;;16.50;99.90;;;;;;5034789;28;20030;-84
2023/07/01 00:32:09;;;;;;;4.82;1.65;;;16.50;99.90;;;;;;5022349;28;20025;-85
2023/07/01 00:34:35;;;;;;;1.85;1.30;;;16.50;99.90;;;;;;5025237;28;20030;-85
2023/07/01 00:37:02;;;;;;;1.73;1.60;;;16.50;99.90;;;;;;5040474;28;20070;-85
2023/07/01 00:39:27;;;;;;;2.05;1.67;;;16.50;99.90;;;;;;5028542;28;20053;-84
2023/07/01 00:41:54;;;;;;;2.88;2.05;;;16.50;99.90;;;;;;5027687;28;20342;-83
2023/07/01 00:44:21;;;;;;;1.30;1.20;;;16.60;99.90;;;;;;5028488;28;20028;-79
2023/07/01 00:46:47;;;;;;;6.18;1.92;;;16.60;99.90;;;;;;5038462;28;20029;-77
2023/07/01 00:49:13;;;;;;;1.63;1.52;;;16.60;99.90;;;;;;5040029;28;20038;-81
2023/07/01 00:51:38;;;;;;;1.63;1.45;;;16.60;99.90;;;;;;5057762;28;20022;-82
2023/07/01 00:54:04;;;;;;;2.47;1.70;;;16.70;99.90;;;;;;5040651;28;20085;-81
2023/07/01 00:56:30;;;;;;;3.13;1.55;;;16.70;99.90;;;;;;5036882;28;20021;-81
2023/07/01 00:58:56;;;;;;;2.00;1.77;;;16.80;99.90;;;;;;5037711;28;20064;-80
2023/07/01 01:01:29;;;;;;;2.80;1.75;;;16.80;99.90;;;;;;5037058;28;20084;-82
2023/07/01 01:04:33;;;;;;;3.67;1.63;;;16.90;99.90;;;;;;5036474;28;20053;-81
2023/07/01 01:07:05;;;;;;;1.80;1.65;;;16.90;99.90;;;;;;5036913;28;20036;-81
2023/07/01 01:09:41;;;;;;;1.60;1.50;;;16.90;99.90;;;;;;5037194;28;20030;-81
2023/07/01 01:12:10;;;;;;;2.10;1.90;;;17.00;99.90;;;;;;5039923;28;20036;-81
2023/07/01 01:14:38;;;;;;;3.03;1.30;;;17.00;99.90;;;;;;5037020;28;20097;-81
2023/07/01 01:17:09;;;;;;;2.15;1.60;;;17.00;99.90;;;;;;5054235;28;20037;-81
2023/07/01 01:19:37;;;;;;;2.95;1.70;;;17.00;99.90;;;;;;5052789;28;20049;-81
2023/07/01 01:22:40;;;;;;;3.53;1.93;;;17.00;99.90;;;;;;5039277;28;20008;-82
2023/07/01 01:25:08;;;;;;;5.65;1.73;;;16.90;99.90;;;;;;5038528;28;20025;-82
2023/07/01 01:27:39;;;;;;;4.00;1.67;;;16.90;99.90;;;;;;5038422;28;20029;-81
2023/07/01 01:30:06;;;;;;;3.83;1.48;;;17.00;99.90;;;;;;5034282;28;20014;-81
2023/07/01 01:32:35;;;;;;;2.47;1.30;;;16.90;99.90;;;;;;5031135;28;20037;-80
2023/07/01 01:35:02;;;;;;;8.10;2.03;;;16.90;99.90;;;;;;5045854;28;20105;-80
2023/07/01 01:37:40;;;;;;;1.33;1.23;;;16.90;99.90;;;;;;5029744;28;20048;-81
2023/07/01 01:40:15;;;;;;;1.25;1.15;;;16.80;99.90;;;;;;5043542;28;20315;-81
2023/07/01 01:42:44;;;;;;;1.35;1.25;;;16.80;99.90;;;;;;5043245;28;20065;-81
2023/07/01 01:45:12;;;;;;;1.75;1.52;;;16.80;99.90;;;;;;5042970;28;20049;-82
2023/07/01 01:47:38;;;;;;;2.20;1.00;;;16.80;99.90;;;;;;5029591;28;20092;-81
2023/07/01 01:50:09;;;;;;;1.27;1.17;;;16.80;99.90;;;;;;5042663;28;20049;-82
2023/07/01 01:52:37;;;;;;;1.60;1.50;;;16.80;99.90;;;;;;5043714;28;20022;-82
2023/07/01 01:55:04;;;;;;;2.13;1.30;;;16.80;99.90;;;;;;5043095;28;20033;-81
2023/07/01 01:57:31;;;;;;;1.90;1.30;;;16.70;99.90;;;;;;5046635;28;20056;-81
2023/07/01 01:59:56;;;;;;;1.77;1.52;;;16.70;99.90;;;;;;5044321;28;20030;-81
2023/07/01 02:02:22;;;;;;;1.10;1.02;;;16.70;99.90;;;;;;5044739;28;20029;-80
2023/07/01 02:04:48;;;;;;;2.67;1.33;;;16.60;99.90;;;;;;5061021;28;20025;-80
2023/07/01 02:07:13;;;;;;;5.15;1.65;;;16.60;99.90;;;;;;5059707;28;20030;-80
2023/07/01 02:09:39;;;;;;;1.30;1.20;;;16.60;99.90;;;;;;5051405;28;20071;-81
2023/07/01 02:12:05;;;;;;;2.63;1.67;;;16.60;99.90;;;;;;5050830;28;20021;-81
2023/07/01 02:14:31;;;;;;;2.63;1.00;;;16.70;99.90;;;;;;5053691;28;20025;-80
2023/07/01 02:16:57;;;;;;;1.50;1.35;;;16.70;99.90;;;;;;5064389;28;20036;-80
2023/07/01 02:19:22;;;;;;;3.40;1.08;;;16.70;99.90;;;;;;5061213;28;20021;-81
2023/07/01 02:21:48;;;;;;;3.60;1.60;;;16.70;99.90;;;;;;5064314;28;20029;-80
2023/07/01 02:24:14;;;;;;;4.85;1.08;;;16.60;99.90;;;;;;5046743;28;20068;-80
2023/07/01 02:26:39;;;;;;;1.30;1.20;;;16.70;99.90;;;;;;5046589;28;20036;-79
2023/07/01 02:29:05;;;;;;;1.25;1.15;;;16.70;99.90;;;;;;5060168;28;20021;-80
2023/07/01 02:31:31;;;;;;;2.60;1.00;;;16.70;99.90;;;;;;5044001;28;20049;-79
2023/07/01 02:34:00;;;;;;;3.17;1.98;;;16.60;99.90;;;;;;5041282;28;20038;-80
2023/07/01 02:36:26;;;;;;;1.00;1.00;;;16.60;99.90;;;;;;5042128;28;20072;-80
2023/07/01 02:38:52;;;;;;;2.47;1.20;;;16.50;99.90;;;;;;5057047;28;20030;-80
2023/07/01 02:41:17;;;;;;;2.38;1.63;;;16.50;99.90;;;;;;5042878;28;20077;-81
2023/07/01 02:43:43;;;;;;;1.40;1.30;;;16.50;99.90;;;;;;5060501;28;20033;-81
2023/07/01 02:46:09;;;;;;;1.52;1.42;;;16.40;99.90;;;;;;5059433;28;20325;-81
2023/07/01 02:48:34;;;;;;;2.33;1.52;;;16.30;99.90;;;;;;5044203;28;20210;-81
2023/07/01 02:51:00;;;;;;;1.88;1.27;;;16.30;99.90;;;;;;5058996;28;20033;-81
2023/07/01 02:53:26;;;;;;;1.20;1.10;;;16.20;99.90;;;;;;5043136;28;20356;-80
2023/07/01 02:55:51;;;;;;;2.05;1.60;;;16.10;99.90;;;;;;5059343;28;20316;-81
2023/07/01 02:58:19;;;;;;;3.47;1.25;;;16.10;99.90;;;;;;5040339;28;20026;-80
2023/07/01 03:00:45;;;;;;;2.00;1.17;;;16.00;99.90;;;;;;5038981;28;20243;-80
2023/07/01 03:03:11;;;;;;;1.13;1.02;;;15.80;99.90;;;;;;5038974;28;20156;-79
2023/07/01 03:05:37;;;;;;;2.65;0.85;;;15.80;99.90;;;;;;5022713;28;20368;-80
2023/07/01 03:08:06;;;;;;;1.40;1.00;;;15.80;99.90;;;;;;5023896;28;20041;-81
2023/07/01 03:10:33;;;;;;;1.63;1.40;;;15.70;99.90;;;;;;5023585;28;20041;-79
2023/07/01 03:12:59;;;;;;;1.23;0.98;;;15.60;99.90;;;;;;5038798;28;20398;-79
2023/07/01 03:15:25;;;;;;;1.80;1.05;;;15.60;99.90;;;;;;5023015;28;20284;-79
2023/07/01 03:17:50;;;;;;;1.33;0.77;;;15.60;99.90;;;;;;5022913;28;20030;-80
2023/07/01 03:20:23;;;;;;;1.67;1.45;;;15.60;99.90;;;;;;5022638;28;20021;-79
2023/07/01 03:22:50;;;;;;;4.78;1.52;;;15.50;99.90;;;;;;5038421;28;20033;-80
2023/07/01 03:25:15;;;;;;;1.77;1.25;;;15.40;99.90;;;;;;5038431;28;20025;-80
2023/07/01 03:27:42;;;;;;;2.33;1.40;;;15.40;99.90;;;;;;5038598;28;20065;-79
2023/07/01 03:30:13;;;;;;;4.15;2.08;;;15.40;99.90;;;;;;5038394;28;20021;-80
2023/07/01 03:32:40;;;;;;;1.63;1.48;;;15.40;99.90;;;;;;5022745;28;20033;-79
2023/07/01 03:35:06;;;;;;;0.95;0.95;;;15.30;99.90;;;;;;5037607;28;20364;-80
2023/07/01 03:37:31;;;;;;;1.33;1.23;;;15.30;99.90;;;;;;5023072;28;20029;-80
2023/07/01 03:39:57;;;;;;;3.03;1.65;;;15.20;99.90;;;;;;5038076;28;20249;-80
2023/07/01 03:42:23;;;;;;;0.77;0.77;;;15.20;99.90;;;;;;5039671;28;20029;-80
2023/07/01 03:44:48;;;;;;;1.13;1.00;;;15.10;99.90;;;;;;5038684;28;20022;-80
2023/07/01 03:47:14;;;;;;;1.10;1.00;;;15.10;99.90;;;;;;5039000;28;20287;-81
2023/07/01 03:49:39;;;;;;;2.03;1.10;;;15.10;99.90;;;;;;5024275;28;20030;-80
2023/07/01 03:52:05;;;;;;;2.90;1.27;;;15.00;99.90;;;;;;5042120;28;20326;-80
2023/07/01 03:54:31;;;;;;;1.10;1.00;;;15.00;99.90;;;;;;5041132;28;20313;-81
2023/07/01 03:56:57;;;;;;;1.05;1.02;;;15.00;99.90;;;;;;5025622;28;20018;-79
2023/07/01 03:59:23;;;;;;;1.50;1.08;;;15.00;99.90;;;;;;5039346;28;20191;-80
2023/07/01 04:01:48;;;;;;;3.22;1.33;;;15.00;99.90;;;;;;5024468;28;20033;-80
2023/07/01 04:04:14;;;;;;;0.80;0.70;;;15.00;99.90;;;;;;5021137;28;20022;-79
2023/07/01 04:06:39;;;;;;;1.88;1.10;;;15.00;99.90;;;;;;5035516;28;20025;-80
2023/07/01 04:09:05;;;;;;;1.75;1.05;;;15.00;99.90;;;;;;5036505;28;20383;-79
2023/07/01 04:11:31;;;;;;;2.85;1.20;;;14.90;99.90;;;;;;5036648;28;20037;-80
2023/07/01 04:13:57;;;;;;;4.32;1.00;;;14.90;99.90;;;;;;5036304;28;20326;-79
2023/07/01 04:16:23;;;;;;;1.10;1.00;;;14.90;99.90;;;;;;5021641;28;20046;-80
2023/07/01 04:18:49;;;;;;;1.42;1.42;;;14.90;99.90;;;;;;5021008;28;20344;-79
2023/07/01 04:21:15;;;;;;;2.88;1.15;;;14.90;99.90;;;;;;5019637;28;20018;-79
2023/07/01 04:23:40;;;;;;;2.35;1.50;;;14.90;99.90;;;;;;5021593;28;20093;-81
2023/07/01 04:26:06;;;;;;;1.38;1.15;;;14.90;99.90;;;;;;5036772;28;20034;-79
2023/07/01 04:28:32;;;;;;;1.02;1.02;;;14.90;99.90;;;;;;5036344;28;20080;-80
2023/07/01 04:30:57;;;;;;;3.42;1.15;;;14.90;99.90;;;;;;5037870;28;20041;-80
2023/07/01 04:33:23;;;;;;;0.95;0.90;;;14.90;99.90;;;;;;5037499;28;20038;-79
2023/07/01 04:35:49;;;;;;;3.15;1.10;;;15.00;99.90;;;;;;5037191;28;20053;-81
2023/07/01 04:38:14;;;;;;;1.20;1.10;;;15.00;99.90;;;;;;5022638;28;20064;-80
2023/07/01 04:40:40;;;;;;;1.58;0.98;;;15.00;99.90;;;;;;5039278;28;20018;-80
2023/07/01 04:43:07;;;;;;;1.75;1.13;;;15.10;99.90;;;;;;5021368;28;20072;-79
2023/07/01 04:45:33;;;;;;;1.15;1.10;;;15.20;99.90;;;;;;5036293;28;20068;-79
2023/07/01 04:48:00;;;;;;;3.00;1.08;;;15.30;99.90;;;;;;5021624;28;20022;-80
2023/07/01 04:50:25;;;;;;;3.58;1.00;;;15.40;99.90;;;;;;5033111;28;20030;-78
2023/07/01 04:52:51;;;;;;;1.20;1.10;;;15.40;99.90;;;;;;5020337;28;20110;-80
2023/07/01 04:55:18;;;;;;;2.65;1.10;;;15.40;99.90;;;;;;5017817;28;20041;-79
2023/07/01 04:57:44;;;;;;;1.00;1.00;;;15.60;99.90;;;;;;5022639;28;20026;-79
2023/07/01 05:00:10;;;;;;;2.17;1.00;;;15.70;99.90;;;;;;5037513;28;20229;-78
2023/07/01 05:02:37;;;;;;;4.53;1.10;;;15.70;99.90;;;;;;5020412;28;20018;-80
2023/07/01 05:05:03;;;;;;;5.68;1.05;;;15.60;99.90;;;;;;5036589;28;20061;-79
2023/07/01 05:07:28;;;;;;;1.25;1.15;;;15.60;99.90;;;;;;5037291;28;20022;-79
2023/07/01 05:09:54;;;;;;;2.97;1.25;;;15.60;99.90;;;;;;5035912;28;20060;-80
2023/07/01 05:12:19;;;;;;;1.60;1.27;;;15.60;99.90;;;;;;5019633;28;20033;-79
2023/07/01 05:14:45;;;;;;;2.13;1.17;;;15.60;99.90;;;;;;5022562;28;20221;-80
2023/07/01 05:17:11;;;;;;;0.80;0.80;;;15.60;99.90;;;;;;5019719;28;20021;-81
2023/07/01 05:19:36;;;;;;;3.90;1.05;;;15.60;99.90;;;;;;5024145;28;20022;-79
2023/07/01 05:22:02;;;;;;;1.83;1.20;;;15.70;99.90;;;;;;5018218;28;20061;-81
2023/07/01 05:24:28;;;;;;;5.35;1.83;;;15.70;99.90;;;;;;5034821;28;20107;-79
2023/07/01 05:26:53;;;;;;;1.50;0.95;;;15.80;99.90;;;;;;5015933;28;20118;-80
2023/07/01 05:29:24;;;;;;;1.88;1.35;;;15.80;99.90;;;;;;5032185;28;20552;-80
2023/07/01 05:31:50;;;;;;;1.27;1.15;;;15.90;99.90;;;;;;5017042;28;20077;-80
2023/07/01 05:34:16;;;;;;;1.13;1.02;;;15.90;99.90;;;;;;5015460;28;20116;-80
2023/07/01 05:36:43;;;;;;;1.92;0.88;;;16.00;99.90;;;;;;5029416;28;20052;-79
2023/07/01 05:39:09;;;;;;;1.20;1.10;;;16.00;99.90;;;;;;5014556;28;20094;-80
2023/07/01 05:41:35;;;;;;;1.85;1.23;;;16.10;99.90;;;;;;5015127;28;20384;-80
2023/07/01 05:44:01;;;;;;;4.15;1.42;;;16.20;99.90;;;;;;5026980;28;20037;-79
2023/07/01 05:46:26;;;;;;;1.02;0.93;;;16.30;99.90;;;;;;5010984;28;20080;-80
2023/07/01 05:48:52;;;;;;;2.13;1.00;;;16.40;99.90;;;;;;5035490;28;20030;-80
2023/07/01 05:51:18;;;;;;;4.97;1.42;;;16.40;99.90;;;;;;5036286;28;20026;-82
2023/07/01 05:53:47;;;;;;;3.28;1.15;;;16.50;99.90;;;;;;5040282;28;20092;-80
2023/07/01 05:56:12;;;;;;;0.82;0.70;;;16.60;99.90;;;;;;5036669;28;20033;-81
2023/07/01 05:58:38;;;;;;;2.17;0.95;;;16.60;99.90;;;;;;5013111;28;20030;-81
2023/07/01 06:01:04;;;;;;;1.00;0.95;;;16.70;99.90;;;;;;5043778;28;20505;-82
2023/07/01 06:03:29;;;;;;;2.15;1.27;;;16.70;99.90;;;;;;5024624;28;20379;-79
2023/07/01 06:05:55;;;;;;;2.75;1.40;;;16.70;99.90;;;;;;5029829;28;20285;-81
2023/07/01 06:08:21;;;;;;;2.25;1.00;;;16.80;99.90;;;;;;5024352;28;20423;-81
2023/07/01 06:10:46;;;;;;;1.65;1.33;;;17.10;99.90;;;;;;5029045;28;20033;-81
2023/07/01 06:13:12;;;;;;;3.80;1.02;;;17.00;99.90;;;;;;5022419;28;20034;-81
2023/07/01 06:15:37;;;;;;;1.52;1.17;;;17.00;99.90;;;;;;5024630;28;20029;-80
2023/07/01 06:18:03;;;;;;;1.17;1.05;;;17.00;99.90;;;;;;5035552;28;20022;-81
2023/07/01 06:20:29;;;;;;;1.42;1.33;;;17.10;99.90;;;;;;5043641;28;20394;-81
2023/07/01 06:22:54;;;;;;;1.13;1.02;;;17.30;99.90;;;;;;5024734;28;20045;-80
2023/07/01 06:25:20;;;;;;;5.07;1.20;;;17.40;99.90;;;;;;5038820;28;20022;-80
2023/07/01 06:27:45;;;;;;;2.25;1.17;;;17.40;99.90;;;;;;5022893;28;20057;-81
2023/07/01 06:30:11;;;;;;;1.00;0.88;;;17.40;99.90;;;;;;5037093;28;20030;-81
2023/07/01 06:32:37;;;;;;;0.85;0.85;;;17.40;99.90;;;;;;5021760;28;20037;-79
2023/07/01 06:35:03;;;;;;;1.38;1.13;;;17.40;99.90;;;;;;5018851;28;20046;-82
2023/07/01 06:37:29;;;;;;;1.08;0.98;;;17.40;99.90;;;;;;5020355;28;20033;-81
2023/07/01 06:39:54;;;;;;;1.15;0.80;;;17.80;99.90;;;;;;5030761;28;20056;-81
2023/07/01 06:51:13;;;;;;;1.45;1.00;;;20.40;94.90;;;;;;5219824;23;20047;-87
2023/07/01 06:53:39;;;;;;;1.40;0.70;;;21.10;93.80;;;;;;4969228;28;20051;-88
2023/07/01 06:56:05;;;;;;;3.08;0.85;;;22.10;91.40;;;;;;4970369;28;20088;-85
2023/07/01 06:58:31;;;;;;;5.07;1.00;;;22.60;88.30;;;;;;4969236;28;20046;-82
2023/07/01 07:00:57;;;;;;;1.00;0.90;;;23.60;82.70;;;;;;4979145;28;20026;-80
2023/07/01 07:03:22;;;;;;;3.45;0.80;;;24.20;77.10;;;;;;4971115;28;20041;-81
2023/07/01 07:05:48;;;;;;;1.35;1.02;;;24.10;77.10;;;;;;4967255;28;20026;-81
2023/07/01 07:08:13;;;;;;;3.45;0.80;;;24.50;75.10;;;;;;4969486;28;20046;-81
2023/07/01 07:10:39;;;;;;;3.10;0.75;;;24.40;73.70;;;;;;4968902;28;20464;-79
2023/07/01 07:13:05;;;;;;;2.58;0.93;;;23.40;75.20;;;;;;4969321;28;20403;-85
2023/07/01 07:15:32;;;;;;;3.40;1.00;;;23.40;74.30;;;;;;4971440;28;20029;-90
2023/07/01 07:17:57;;;;;;;4.25;0.90;;;23.00;74.50;;;;;;4968422;28;20522;-79
2023/07/01 07:20:23;;;;;;;0.70;0.70;;;22.90;74.80;;;;;;4989795;28;20053;-77
2023/07/01 07:22:49;;;;;;;1.27;0.77;;;22.80;75.00;;;;;;4983535;28;20019;-77
2023/07/01 07:25:17;;;;;;;1.17;0.88;;;22.90;73.60;;;;;;4978212;28;20030;-78
2023/07/01 07:27:46;;;;;;;4.00;0.77;;;22.90;74.20;;;;;;4978205;28;20223;-78
2023/07/01 07:30:13;;;;;;;1.83;0.73;;;23.00;74.10;;;;;;4978903;28;20023;-77
2023/07/01 07:32:39;;;;;;;1.17;1.02;;;23.10;74.40;;;;;;4980173;28;20029;-78
2023/07/01 07:35:05;;;;;;;1.20;0.73;;;23.20;74.20;;;;;;4976717;28;20539;-83
2023/07/01 07:37:31;;;;;;;2.40;0.90;;;23.60;73.50;;;;;;4975677;28;20130;-80
2023/07/01 07:39:59;;;;;;;1.40;0.60;;;24.10;71.50;;;;;;4973755;28;20069;-84
2023/07/01 07:42:25;;;;;;;0.70;0.70;;;24.30;70.40;;;;;;4975706;28;20091;-78
2023/07/01 07:44:51;;;;;;;2.08;0.77;;;24.30;69.20;;;;;;4973820;28;20043;-77
2023/07/01 07:47:16;;;;;;;3.70;0.80;;;24.60;69.80;;;;;;4979661;28;20019;-78
2023/07/01 07:49:42;;;;;;;4.53;0.90;;;24.60;66.90;;;;;;4978326;28;20050;-78
2023/07/01 07:52:08;;;;;;;1.20;1.00;;;23.90;69.10;;;;;;4978308;28;20050;-78
2023/07/01 07:54:33;;;;;;;2.78;0.80;;;24.30;68.90;;;;;;4976147;28;20062;-78
2023/07/01 07:56:59;;;;;;;3.70;1.17;;;24.20;70.20;;;;;;4977022;28;20471;-78
2023/07/01 07:59:26;;;;;;;1.65;0.70;;;24.10;69.10;;;;;;4977284;28;20035;-79
2023/07/01 08:01:53;;;;;;;2.00;1.17;;;24.50;68.20;;;;;;4976912;28;20412;-78
2023/07/01 08:04:19;;;;;;;1.33;1.00;;;24.90;68.20;;;;;;4971639;28;20022;-78
2023/07/01 08:06:45;;;;;;;3.08;1.02;;;25.00;66.50;;;;;;4949819;28;20547;-78
2023/07/01 08:09:11;;;;;;;2.92;0.93;;;25.00;68.90;;;;;;4968010;28;20113;-78
2023/07/01 08:11:36;;;;;;;1.95;1.00;;;24.00;65.50;;;;;;4972314;28;20023;-78
2023/07/01 08:14:02;;;;;;;1.83;0.93;;;23.90;67.90;;;;;;4977830;28;20054;-77
2023/07/01 08:16:28;;;;;;;1.73;1.00;;;24.20;66.70;;;;;;4970247;28;20036;-78
2023/07/01 08:18:53;;;;;;;1.58;0.90;;;24.10;66.20;;;;;;4974539;28;20081;-79
2023/07/01 08:21:19;;;;;;;2.67;1.13;;;24.10;68.30;;;;;;4987760;28;20026;-79
2023/07/01 08:23:45;;;;;;;4.10;1.27;;;23.90;67.50;;;;;;4983591;28;20040;-79
2023/07/01 08:26:10;;;;;;;2.63;1.05;;;23.30;68.90;;;;;;4978923;28;20031;-78
2023/07/01 08:28:36;;;;;;;3.08;1.10;;;23.00;68.00;;;;;;4978884;28;20197;-78
2023/07/01 08:31:02;;;;;;;4.00;1.00;;;22.90;72.50;;;;;;4980539;28;20082;-78
2023/07/01 08:33:28;;;;;;;1.23;0.85;;;22.90;67.50;;;;;;4980560;28;20049;-79
2023/07/01 08:35:54;;;;;;;1.98;0.90;;;22.70;68.20;;;;;;4980179;28;20222;-78
2023/07/01 08:38:19;;;;;;;1.48;1.33;;;22.70;70.50;;;;;;4985429;28;20046;-78
2023/07/01 08:40:50;;;;;;;1.27;1.00;;;22.30;72.50;;;;;;4977678;28;20503;-78
2023/07/01 08:43:17;;;;;;;2.00;1.35;;;22.10;71.20;;;;;;4973122;28;20038;-78
2023/07/01 08:45:43;;;;;;;1.77;1.40;;;22.00;72.50;;;;;;4979254;28;20019;-78
2023/07/01 08:48:09;;;;;;;3.10;0.95;;;22.00;71.80;;;;;;4979496;28;20223;-78
2023/07/01 08:51:14;;;;;;;1.55;0.82;;;22.10;72.30;;;;;;4970685;28;20054;-79
2023/07/01 08:53:42;;;;;;;1.95;1.05;;;22.20;72.30;;;;;;4966686;28;20322;-79
2023/07/01 08:56:09;;;;;;;3.15;1.00;;;22.30;71.30;;;;;;4979563;28;20023;-78
2023/07/01 08:58:34;;;;;;;3.58;1.15;;;22.10;69.50;;;;;;4971018;28;20085;-78
2023/07/01 09:01:00;;;;;;;1.20;1.00;;;22.30;71.10;;;;;;4971387;28;20129;-78
2023/07/01 09:03:27;;;;;;;3.92;1.65;;;22.60;70.40;;;;;;4974410;28;20302;-79
2023/07/01 09:05:53;;;;;;;1.00;0.90;;;22.80;70.00;;;;;;4993340;28;20026;-80
2023/07/01 09:08:19;;;;;;;1.33;0.88;;;22.80;68.90;;;;;;4988042;28;20189;-83
2023/07/01 09:10:44;;;;;;;1.10;1.00;;;23.20;73.50;;;;;;4974599;28;20026;-73
2023/07/01 09:13:14;;;;;;;0.80;0.80;;;23.60;70.70;;;;;;4977512;28;20035;-73
2023/07/01 09:15:47;;;;;;;1.33;1.10;;;24.30;66.60;;;;;;4979166;28;20023;-74
2023/07/01 09:18:20;;;;;;;4.40;1.10;;;24.30;66.30;;;;;;4981396;28;20015;-71
2023/07/01 09:20:46;;;;;;;1.13;0.93;;;23.90;66.70;;;;;;4975212;28;20023;-82
2023/07/01 09:23:35;;;;;;;1.73;1.48;;;23.70;69.80;;;;;;4980716;28;20034;-73
2023/07/01 09:26:19;;;;;;;6.50;1.73;;;22.80;70.00;;;;;;4983011;28;20038;-72
2023/07/01 09:28:47;;;;;;;2.30;1.00;;;22.80;71.10;;;;;;4983034;28;20030;-73
2023/07/01 09:31:15;;;;;;;1.38;1.00;;;23.10;70.00;;;;;;4983554;28;20023;-72
2023/07/01 09:33:56;;;;;;;1.83;1.00;;;23.60;73.70;;;;;;4983377;28;20037;-72
2023/07/01 09:36:25;;;;;;;1.25;1.15;;;23.90;70.30;;;;;;4983354;28;20089;-78
2023/07/01 09:38:51;;;;;;;2.60;1.38;;;23.70;70.10;;;;;;4982021;28;20034;-70
2023/07/01 09:41:19;;;;;;;3.10;1.27;;;23.50;70.10;;;;;;4983386;28;20086;-68
2023/07/01 09:43:45;;;;;;;1.52;0.88;;;23.30;68.50;;;;;;4981201;28;20023;-78
2023/07/01 09:46:10;;;;;;;3.08;1.25;;;23.20;69.90;;;;;;4980001;28;20026;-77
2023/07/01 09:48:36;;;;;;;0.98;0.90;;;23.40;69.10;;;;;;4981299;28;20055;-79
2023/07/01 09:51:06;;;;;;;2.17;1.00;;;23.30;68.70;;;;;;4981642;28;20275;-77
2023/07/01 09:53:35;;;;;;;1.20;1.10;;;23.60;70.70;;;;;;4978904;28;20039;-78
2023/07/01 09:56:06;;;;;;;1.23;1.02;;;23.70;68.40;;;;;;4981624;28;20221;-78
2023/07/01 09:58:33;;;;;;;1.02;0.75;;;23.40;68.20;;;;;;4980978;28;20022;-78
2023/07/01 10:01:00;;;;;;;1.05;0.98;;;23.30;68.90;;;;;;4975892;28;20030;-79
2023/07/01 10:03:26;;;;;;;7.47;1.10;;;23.20;70.60;;;;;;4975182;28;20025;-78
2023/07/01 10:05:52;;;;;;;1.25;1.15;;;23.50;68.80;;;;;;4968444;28;20042;-78
2023/07/01 10:08:18;;;;;;;2.15;1.60;;;24.00;69.00;;;;;;4968145;28;20751;-78
2023/07/01 10:10:45;;;;;;;1.52;1.42;;;23.70;69.60;;;;;;4968471;28;20100;-74
2023/07/01 10:13:12;;;;;;;1.98;1.10;;;24.00;69.40;;;;;;4968068;28;20408;-76
2023/07/01 10:15:39;;;;;;;1.33;1.00;;;24.50;69.90;;;;;;4969654;28;20030;-71
2023/07/01 10:18:22;;;;;;;1.42;1.00;;;24.50;67.50;;;;;;4969029;28;20050;-81
2023/07/01 10:20:52;;;;;;;5.63;1.13;;;24.40;66.70;;;;;;4968911;28;20030;-72
2023/07/01 10:23:19;;;;;;;3.65;1.05;;;24.50;67.10;;;;;;4970586;28;20402;-72
2023/07/01 10:25:45;;;;;;;1.90;1.08;;;24.20;67.80;;;;;;4978208;28;20131;-73
2023/07/01 10:28:14;;;;;;;0.88;0.88;;;23.90;69.30;;;;;;4980126;28;20023;-72
2023/07/01 10:30:46;;;;;;;2.55;1.65;;;23.60;69.20;;;;;;4977387;28;20470;-72
2023/07/01 10:33:32;;;;;;;2.15;1.10;;;23.60;70.60;;;;;;4969452;28;20039;-72
2023/07/01 10:36:02;;;;;;;2.17;1.33;;;23.60;68.80;;;;;;4976999;28;20059;-74
2023/07/01 10:38:30;;;;;;;2.25;0.98;;;23.90;68.50;;;;;;4975657;28;20046;-72
2023/07/01 10:40:56;;;;;;;3.50;0.80;;;23.60;69.40;;;;;;4981146;28;20070;-72
2023/07/01 10:43:25;;;;;;;1.60;0.93;;;23.80;67.30;;;;;;4980300;28;20015;-72
2023/07/01 10:46:25;;;;;;;2.85;0.82;;;23.70;67.80;;;;;;4975041;28;20093;-74
2023/07/01 10:49:02;;;;;;;2.25;0.98;;;23.90;66.80;;;;;;4970458;28;20034;-74
2023/07/01 10:51:52;;;;;;;4.10;1.40;;;24.40;69.80;;;;;;4972356;28;20053;-75
2023/07/01 10:54:40;;;;;;;1.13;1.02;;;24.50;68.20;;;;;;4973586;28;20364;-75
2023/07/01 10:57:18;;;;;;;0.97;0.90;;;24.80;67.40;;;;;;4972701;28;20025;-73
2023/07/01 10:59:44;;;;;;;1.77;1.45;;;24.80;67.00;;;;;;4970282;28;20476;-73
2023/07/01 11:02:11;;;;;;;3.15;1.20;;;24.70;67.10;;;;;;4970482;28;20065;-73
2023/07/01 11:04:52;;;;;;;2.80;1.08;;;24.60;67.30;;;;;;4969339;28;20357;-75
2023/07/01 11:07:24;;;;;;;5.80;1.55;;;24.70;67.40;;;;;;4970485;28;20027;-76
2023/07/01 11:09:50;;;;;;;1.23;1.13;;;25.10;66.80;;;;;;4976334;28;20058;-75
2023/07/01 11:12:16;;;;;;;3.15;0.73;;;24.90;67.20;;;;;;4976990;28;20039;-75
2023/07/01 11:14:41;;;;;;;3.03;1.17;;;24.60;68.20;;;;;;4979625;28;20054;-79
2023/07/01 11:17:09;;;;;;;1.23;1.10;;;24.30;68.20;;;;;;4979152;28;20037;-80
2023/07/01 11:19:35;;;;;;;1.20;1.00;;;24.30;69.40;;;;;;4979433;28;20025;-80
2023/07/01 11:22:02;;;;;;;2.60;1.10;;;24.30;68.70;;;;;;4976922;28;20026;-84
2023/07/01 11:24:29;;;;;;;3.72;0.98;;;24.40;68.90;;;;;;4972053;28;20034;-80
2023/07/01 11:27:03;;;;;;;3.72;1.13;;;25.00;67.80;;;;;;4974945;28;20034;-81
2023/07/01 11:29:30;;;;;;;1.20;1.10;;;24.90;67.10;;;;;;4974672;28;20019;-80
2023/07/01 11:32:06;;;;;;;0.70;0.70;;;24.50;67.50;;;;;;4976812;28;20109;-83
2023/07/01 11:34:32;;;;;;;1.73;0.82;;;24.70;69.40;;;;;;4981147;28;20066;-85
2023/07/01 11:36:59;;;;;;;1.45;1.10;;;24.90;67.70;;;;;;4985108;28;20081;-78
2023/07/01 11:39:26;;;;;;;1.17;0.95;;;24.90;68.30;;;;;;4974872;28;20027;-88
2023/07/01 11:41:53;;;;;;;2.25;0.80;;;25.10;70.80;;;;;;4963366;28;20473;-86
2023/07/01 11:44:27;;;;;;;2.70;0.90;;;25.00;71.20;;;;;;4961139;28;20090;-86
2023/07/01 11:46:54;;;;;;;1.40;1.10;;;24.70;70.60;;;;;;4962724;28;20019;-86
2023/07/01 11:49:30;;;;;;;1.83;1.20;;;24.20;71.10;;;;;;4966456;28;20027;-88
2023/07/01 11:52:01;;;;;;;1.00;0.77;;;23.90;73.10;;;;;;4980419;28;20039;-80
2023/07/01 11:54:38;;;;;;;1.70;1.05;;;23.80;73.00;;;;;;4974457;28;20030;-80
2023/07/01 11:57:22;;;;;;;1.08;0.98;;;23.50;73.10;;;;;;4987668;28;20113;-78
2023/07/01 11:59:56;;;;;;;1.48;0.98;;;23.00;73.20;;;;;;4970533;28;20034;-81
2023/07/01 12:02:29;;;;;;;2.28;0.88;;;22.70;74.20;;;;;;4968501;28;20072;-85
2023/07/01 12:04:55;;;;;;;2.28;1.45;;;22.70;77.00;;;;;;4966664;28;20190;-85
2023/07/01 12:07:20;;;;;;;1.55;0.95;;;22.20;76.60;;;;;;4973788;28;20039;-83
2023/07/01 12:09:46;;;;;;;3.08;1.90;;;21.70;79.70;;;;;;4968980;28;20015;-82
2023/07/01 12:12:15;;;;;;;0.93;0.73;;;21.70;79.70;;;;;;4966809;28;20147;-82
2023/07/01 12:14:41;;;;;;;;;;;21.60;81.40;;;;;;4970763;28;20034;-88
2023/07/01 12:17:08;;;;;;;1.27;0.80;;;21.40;82.90;;;;;;4967758;28;19910;-80
2023/07/01 12:19:34;;;;;;;1.15;1.00;;;21.20;84.90;;;;;;4965613;28;20027;-81
2023/07/01 12:22:00;;;;;;;1.15;0.90;;;21.20;85.00;;;;;;4964401;28;20081;-80
2023/07/01 12:24:29;;;;;;;2.03;1.35;;;21.30;84.70;;;;;;4963563;28;20022;-81
2023/07/01 12:26:57;;;;;;;1.63;1.25;;;21.50;86.10;;;;;;4962708;28;20488;-80
2023/07/01 12:29:24;;;;;;;2.58;1.20;;;21.80;85.40;;;;;;4964420;28;20121;-84
2023/07/01 12:31:50;;;;;;;3.60;0.90;;;22.00;84.30;;;;;;4964213;28;20031;-83
2023/07/01 12:34:16;;;;;;;1.08;0.95;;;22.10;81.50;;;;;;4964592;28;20026;-86
2023/07/01 12:36:46;;;;;;;1.55;0.90;;;22.10;83.70;;;;;;4970442;28;20538;-80
2023/07/01 12:39:13;;;;;;;2.22;0.82;;;22.30;82.70;;;;;;4978693;28;20027;-82
2023/07/01 12:41:39;;;;;;;0.90;0.80;;;22.80;81.20;;;;;;4967370;28;20093;-81
2023/07/01 12:44:09;;;;;;;0.80;0.80;;;22.90;82.10;;;;;;4967308;28;20035;-81
2023/07/01 12:46:39;;;;;;;2.35;1.05;;;23.10;81.20;;;;;;4970285;28;20058;-83
2023/07/01 12:49:05;;;;;;;1.05;0.77;;;23.40;79.60;;;;;;4967045;28;20361;-82
2023/07/01 12:51:35;;;;;;;5.50;1.20;;;23.30;79.30;;;;;;4967219;28;20047;-85
2023/07/01 12:54:01;;;;;;;1.25;0.70;;;23.30;78.60;;;;;;4967571;28;20038;-81
2023/07/01 12:56:26;;;;;;;0.88;0.80;;;23.30;82.20;;;;;;4970180;28;20023;-82
2023/07/01 12:58:52;;;;;;;1.92;0.70;;;23.40;79.90;;;;;;4970272;28;20031;-80